Terminal Aerodrome Forecast
Issued by NWS Sterling, VA

Current Version | Previous Version | Graphics & Text | Print | Product List | Glossary On
Versions: 1 2 3 4 5 6 7 8 9 10 11 12 13 14 15 16 17 18 19 20 21 22 23
000
FTUS41 KLWX 170923 AAA
TAFDCA
TAF AMD
KDCA 170923Z 1709/1812 29011KT P6SM BKN050
     FM171300 26011KT P6SM BKN070
     FM180000 30012KT P6SM BKN050
     FM180200 29009KT P6SM SCT250=

USA.gov is the U.S. government's official web portal to all federal, state and local government web resources and services.